sensor_id;sensor_type;location;lat;lon;timestamp;temperature;humidity
15259;DHT22;34462;51.368;12.364;2023-04-25T00:01:03;8.70;99.90
15259;DHT22;34462;51.368;12.364;2023-04-25T00:03:32;8.70;99.90
15259;DHT22;34462;51.368;12.364;2023-04-25T00:06:02;8.70;99.90
15259;DHT22;34462;51.368;12.364;2023-04-25T00:08:30;8.80;99.90
15259;DHT22;34462;51.368;12.364;2023-04-25T00:10:58;8.90;99.90
15259;DHT22;34462;51.368;12.364;2023-04-25T00:13:27;8.90;99.90
15259;DHT22;34462;51.368;12.364;2023-04-25T00:15:56;8.90;99.90
15259;DHT22;34462;51.368;12.364;2023-04-25T00:18:24;8.90;99.90
15259;DHT22;34462;51.368;12.364;2023-04-25T00:20:55;8.90;99.90
15259;DHT22;34462;51.368;12.364;2023-04-25T00:23:25;8.90;99.90
15259;DHT22;34462;51.368;12.364;2023-04-25T00:25:53;8.90;99.90
15259;DHT22;34462;51.368;12.364;2023-04-25T00:28:21;8.80;99.90
15259;DHT22;34462;51.368;12.364;2023-04-25T00:30:49;8.80;99.90
15259;DHT22;34462;51.368;12.364;2023-04-25T00:33:17;8.70;99.90
15259;DHT22;34462;51.368;12.364;2023-04-25T00:35:46;8.60;99.90
15259;DHT22;34462;51.368;12.364;2023-04-25T00:38:14;8.50;99.90
15259;DHT22;34462;51.368;12.364;2023-04-25T00:40:43;8.40;99.90
15259;DHT22;34462;51.368;12.364;2023-04-25T00:43:11;8.30;99.90
15259;DHT22;34462;51.368;12.364;2023-04-25T00:45:40;8.20;99.90
15259;DHT22;34462;51.368;12.364;2023-04-25T00:48:08;8.20;99.90
15259;DHT22;34462;51.368;12.364;2023-04-25T00:50:36;8.10;99.90
15259;DHT22;34462;51.368;12.364;2023-04-25T00:53:05;8.10;99.90
15259;DHT22;34462;51.368;12.364;2023-04-25T00:55:34;8.00;99.90
15259;DHT22;34462;51.368;12.364;2023-04-25T00:58:04;7.90;99.90
15259;DHT22;34462;51.368;12.364;2023-04-25T01:00:32;7.90;99.90
15259;DHT22;34462;51.368;12.364;2023-04-25T01:03:01;7.90;99.90
15259;DHT22;34462;51.368;12.364;2023-04-25T01:05:31;7.80;99.90
15259;DHT22;34462;51.368;12.364;2023-04-25T01:07:59;7.80;99.90
15259;DHT22;34462;51.368;12.364;2023-04-25T01:10:28;7.70;99.90
15259;DHT22;34462;51.368;12.364;2023-04-25T01:12:56;7.60;99.90
15259;DHT22;34462;51.368;12.364;2023-04-25T01:15:27;7.60;99.90
15259;DHT22;34462;51.368;12.364;2023-04-25T01:17:55;7.50;99.90
15259;DHT22;34462;51.368;12.364;2023-04-25T01:20:28;7.50;99.90
15259;DHT22;34462;51.368;12.364;2023-04-25T01:23:01;7.50;99.90
15259;DHT22;34462;51.368;12.364;2023-04-25T01:25:30;7.50;99.90
15259;DHT22;34462;51.368;12.364;2023-04-25T01:27:59;7.50;99.90
15259;DHT22;34462;51.368;12.364;2023-04-25T01:30:27;7.40;99.90
15259;DHT22;34462;51.368;12.364;2023-04-25T01:32:56;7.40;99.90
15259;DHT22;34462;51.368;12.364;2023-04-25T01:35:25;7.30;99.90
15259;DHT22;34462;51.368;12.364;2023-04-25T01:37:53;7.30;99.90
15259;DHT22;34462;51.368;12.364;2023-04-25T01:40:24;7.20;99.90
15259;DHT22;34462;51.368;12.364;2023-04-25T01:42:52;7.20;99.90
15259;DHT22;34462;51.368;12.364;2023-04-25T01:45:21;7.20;99.90
15259;DHT22;34462;51.368;12.364;2023-04-25T01:47:49;7.10;99.90
15259;DHT22;34462;51.368;12.364;2023-04-25T01:50:18;7.10;99.90
15259;DHT22;34462;51.368;12.364;2023-04-25T01:52:47;7.10;99.90
15259;DHT22;34462;51.368;12.364;2023-04-25T01:55:16;7.00;99.90
15259;DHT22;34462;51.368;12.364;2023-04-25T01:57:45;7.00;99.90
15259;DHT22;34462;51.368;12.364;2023-04-25T02:00:14;7.00;99.90
15259;DHT22;34462;51.368;12.364;2023-04-25T02:02:42;6.90;99.90
15259;DHT22;34462;51.368;12.364;2023-04-25T02:05:10;6.90;99.90
15259;DHT22;34462;51.368;12.364;2023-04-25T02:07:38;6.90;99.90
15259;DHT22;34462;51.368;12.364;2023-04-25T02:10:07;6.90;99.90
15259;DHT22;34462;51.368;12.364;2023-04-25T02:12:36;6.90;99.90
15259;DHT22;34462;51.368;12.364;2023-04-25T02:15:07;6.80;99.90
15259;DHT22;34462;51.368;12.364;2023-04-25T02:17:35;6.80;99.90
15259;DHT22;34462;51.368;12.364;2023-04-25T02:20:05;6.70;99.90
15259;DHT22;34462;51.368;12.364;2023-04-25T02:22:33;6.70;99.90
15259;DHT22;34462;51.368;12.364;2023-04-25T02:25:02;6.70;99.90
15259;DHT22;34462;51.368;12.364;2023-04-25T02:27:31;6.70;99.90
15259;DHT22;34462;51.368;12.364;2023-04-25T02:29:59;6.70;99.90
15259;DHT22;34462;51.368;12.364;2023-04-25T02:32:29;6.70;99.90
15259;DHT22;34462;51.368;12.364;2023-04-25T02:34:57;6.60;99.90
15259;DHT22;34462;51.368;12.364;2023-04-25T02:37:30;6.60;99.90
15259;DHT22;34462;51.368;12.364;2023-04-25T02:39:58;6.60;99.90
15259;DHT22;34462;51.368;12.364;2023-04-25T02:42:27;6.50;99.90
15259;DHT22;34462;51.368;12.364;2023-04-25T02:44:55;6.50;99.90
15259;DHT22;34462;51.368;12.364;2023-04-25T02:47:23;6.50;99.90
15259;DHT22;34462;51.368;12.364;2023-04-25T02:49:53;6.40;99.90
15259;DHT22;34462;51.368;12.364;2023-04-25T02:52:21;6.40;99.90
15259;DHT22;34462;51.368;12.364;2023-04-25T02:54:49;6.30;99.90
15259;DHT22;34462;51.368;12.364;2023-04-25T02:57:18;6.30;99.90
15259;DHT22;34462;51.368;12.364;2023-04-25T02:59:46;6.30;99.90
15259;DHT22;34462;51.368;12.364;2023-04-25T03:02:14;6.30;99.90
15259;DHT22;34462;51.368;12.364;2023-04-25T03:04:42;6.30;99.90
15259;DHT22;34462;51.368;12.364;2023-04-25T03:07:12;6.30;99.90
15259;DHT22;34462;51.368;12.364;2023-04-25T03:09:40;6.30;99.90
15259;DHT22;34462;51.368;12.364;2023-04-25T03:12:08;6.30;99.90
15259;DHT22;34462;51.368;12.364;2023-04-25T03:14:36;6.20;99.90
15259;DHT22;34462;51.368;12.364;2023-04-25T03:17:04;6.20;99.90
15259;DHT22;34462;51.368;12.364;2023-04-25T03:19:32;6.20;99.90
15259;DHT22;34462;51.368;12.364;2023-04-25T03:22:01;6.30;99.90
15259;DHT22;34462;51.368;12.364;2023-04-25T03:24:30;6.20;99.90
15259;DHT22;34462;51.368;12.364;2023-04-25T03:26:58;6.20;99.90
15259;DHT22;34462;51.368;12.364;2023-04-25T03:29:27;6.20;99.90
15259;DHT22;34462;51.368;12.364;2023-04-25T03:31:55;6.10;99.90
15259;DHT22;34462;51.368;12.364;2023-04-25T03:34:23;6.10;99.90
15259;DHT22;34462;51.368;12.364;2023-04-25T03:36:52;6.10;99.90
15259;DHT22;34462;51.368;12.364;2023-04-25T03:39:20;6.10;99.90
15259;DHT22;34462;51.368;12.364;2023-04-25T03:41:50;6.10;99.90
15259;DHT22;34462;51.368;12.364;2023-04-25T03:44:18;6.10;99.90
15259;DHT22;34462;51.368;12.364;2023-04-25T03:46:46;6.10;99.90
15259;DHT22;34462;51.368;12.364;2023-04-25T03:49:16;6.10;99.90
15259;DHT22;34462;51.368;12.364;2023-04-25T03:51:45;6.10;99.90
15259;DHT22;34462;51.368;12.364;2023-04-25T03:54:13;6.10;99.90
15259;DHT22;34462;51.368;12.364;2023-04-25T03:56:41;6.00;99.90
15259;DHT22;34462;51.368;12.364;2023-04-25T03:59:11;6.00;99.90
15259;DHT22;34462;51.368;12.364;2023-04-25T04:01:39;6.00;99.90
15259;DHT22;34462;51.368;12.364;2023-04-25T04:04:07;6.00;99.90
15259;DHT22;34462;51.368;12.364;2023-04-25T04:06:35;5.90;99.90
15259;DHT22;34462;51.368;12.364;2023-04-25T04:09:04;5.90;99.90
15259;DHT22;34462;51.368;12.364;2023-04-25T04:11:36;5.90;99.90
15259;DHT22;34462;51.368;12.364;2023-04-25T04:14:05;5.90;99.90
15259;DHT22;34462;51.368;12.364;2023-04-25T04:16:34;6.00;99.90
15259;DHT22;34462;51.368;12.364;2023-04-25T04:19:02;6.00;99.90
15259;DHT22;34462;51.368;12.364;2023-04-25T04:21:31;6.10;99.90
15259;DHT22;34462;51.368;12.364;2023-04-25T04:24:00;6.10;99.90
15259;DHT22;34462;51.368;12.364;2023-04-25T04:26:28;6.10;99.90
15259;DHT22;34462;51.368;12.364;2023-04-25T04:28:58;6.20;99.90
15259;DHT22;34462;51.368;12.364;2023-04-25T04:31:26;6.20;99.90
15259;DHT22;34462;51.368;12.364;2023-04-25T04:33:56;6.20;99.90
15259;DHT22;34462;51.368;12.364;2023-04-25T04:36:24;6.30;99.90
15259;DHT22;34462;51.368;12.364;2023-04-25T04:38:53;6.30;99.90
15259;DHT22;34462;51.368;12.364;2023-04-25T04:41:23;6.40;99.90
15259;DHT22;34462;51.368;12.364;2023-04-25T04:43:51;6.40;99.90
15259;DHT22;34462;51.368;12.364;2023-04-25T04:46:19;6.50;99.90
15259;DHT22;34462;51.368;12.364;2023-04-25T04:48:48;6.50;99.90
15259;DHT22;34462;51.368;12.364;2023-04-25T04:51:17;6.60;99.90
15259;DHT22;34462;51.368;12.364;2023-04-25T04:53:46;6.70;99.90
15259;DHT22;34462;51.368;12.364;2023-04-25T04:56:14;6.70;99.90
15259;DHT22;34462;51.368;12.364;2023-04-25T04:58:42;6.80;99.90
15259;DHT22;34462;51.368;12.364;2023-04-25T05:01:11;7.00;99.90
15259;DHT22;34462;51.368;12.364;2023-04-25T05:03:40;7.00;99.90
15259;DHT22;34462;51.368;12.364;2023-04-25T05:06:08;7.10;99.90
15259;DHT22;34462;51.368;12.364;2023-04-25T05:08:37;7.20;99.90
15259;DHT22;34462;51.368;12.364;2023-04-25T05:11:06;7.40;99.90
15259;DHT22;34462;51.368;12.364;2023-04-25T05:13:34;7.50;99.90
15259;DHT22;34462;51.368;12.364;2023-04-25T05:16:02;7.70;99.90
15259;DHT22;34462;51.368;12.364;2023-04-25T05:18:31;7.90;99.90
15259;DHT22;34462;51.368;12.364;2023-04-25T05:20:59;8.00;99.90
15259;DHT22;34462;51.368;12.364;2023-04-25T05:23:27;8.30;99.90
15259;DHT22;34462;51.368;12.364;2023-04-25T05:26:00;8.40;99.90
15259;DHT22;34462;51.368;12.364;2023-04-25T05:28:28;8.60;99.90
15259;DHT22;34462;51.368;12.364;2023-04-25T05:30:57;8.70;99.90
15259;DHT22;34462;51.368;12.364;2023-04-25T05:33:25;8.80;99.90
15259;DHT22;34462;51.368;12.364;2023-04-25T05:35:53;8.90;99.90
15259;DHT22;34462;51.368;12.364;2023-04-25T05:38:21;8.90;99.90
15259;DHT22;34462;51.368;12.364;2023-04-25T05:40:52;9.10;99.90
15259;DHT22;34462;51.368;12.364;2023-04-25T05:43:21;9.10;99.90
15259;DHT22;34462;51.368;12.364;2023-04-25T05:45:49;9.10;99.90
15259;DHT22;34462;51.368;12.364;2023-04-25T05:48:18;9.10;99.90
15259;DHT22;34462;51.368;12.364;2023-04-25T05:50:46;9.20;99.90
15259;DHT22;34462;51.368;12.364;2023-04-25T05:53:14;9.30;99.90
15259;DHT22;34462;51.368;12.364;2023-04-25T05:55:42;9.40;99.90
15259;DHT22;34462;51.368;12.364;2023-04-25T05:58:10;9.50;99.90
15259;DHT22;34462;51.368;12.364;2023-04-25T06:00:40;9.60;99.90
15259;DHT22;34462;51.368;12.364;2023-04-25T06:03:08;9.60;99.90
15259;DHT22;34462;51.368;12.364;2023-04-25T06:05:37;9.70;99.90
15259;DHT22;34462;51.368;12.364;2023-04-25T06:08:06;9.80;99.90
15259;DHT22;34462;51.368;12.364;2023-04-25T06:10:34;9.70;99.90
15259;DHT22;34462;51.368;12.364;2023-04-25T06:13:02;9.80;99.90
15259;DHT22;34462;51.368;12.364;2023-04-25T06:15:31;9.90;99.90
15259;DHT22;34462;51.368;12.364;2023-04-25T06:18:01;9.90;99.90
15259;DHT22;34462;51.368;12.364;2023-04-25T06:20:29;9.90;99.90
15259;DHT22;34462;51.368;12.364;2023-04-25T06:22:57;10.10;99.90
15259;DHT22;34462;51.368;12.364;2023-04-25T06:25:26;10.20;99.90
15259;DHT22;34462;51.368;12.364;2023-04-25T06:27:54;10.30;99.90
15259;DHT22;34462;51.368;12.364;2023-04-25T06:30:22;10.40;99.90
15259;DHT22;34462;51.368;12.364;2023-04-25T06:32:52;10.40;99.90
15259;DHT22;34462;51.368;12.364;2023-04-25T06:35:22;10.40;99.90
15259;DHT22;34462;51.368;12.364;2023-04-25T06:37:50;10.30;99.90
15259;DHT22;34462;51.368;12.364;2023-04-25T06:40:18;10.30;99.90
15259;DHT22;34462;51.368;12.364;2023-04-25T06:42:46;10.30;99.90
15259;DHT22;34462;51.368;12.364;2023-04-25T06:45:14;10.30;99.90
15259;DHT22;34462;51.368;12.364;2023-04-25T06:47:43;10.30;99.90
15259;DHT22;34462;51.368;12.364;2023-04-25T06:50:11;10.40;99.90
15259;DHT22;34462;51.368;12.364;2023-04-25T06:52:41;10.40;99.90
15259;DHT22;34462;51.368;12.364;2023-04-25T06:55:09;10.60;99.90
15259;DHT22;34462;51.368;12.364;2023-04-25T06:57:37;10.50;99.90
15259;DHT22;34462;51.368;12.364;2023-04-25T07:00:06;10.60;99.90
15259;DHT22;34462;51.368;12.364;2023-04-25T07:02:36;10.60;99.90
15259;DHT22;34462;51.368;12.364;2023-04-25T07:05:05;10.70;99.90
15259;DHT22;34462;51.368;12.364;2023-04-25T07:07:33;10.70;99.90
15259;DHT22;34462;51.368;12.364;2023-04-25T07:10:03;10.60;99.90
15259;DHT22;34462;51.368;12.364;2023-04-25T07:12:32;10.50;99.90
15259;DHT22;34462;51.368;12.364;2023-04-25T07:15:00;10.50;99.90
15259;DHT22;34462;51.368;12.364;2023-04-25T07:17:32;10.40;99.90
15259;DHT22;34462;51.368;12.364;2023-04-25T07:20:01;10.50;99.90
15259;DHT22;34462;51.368;12.364;2023-04-25T07:22:32;10.40;99.90
15259;DHT22;34462;51.368;12.364;2023-04-25T07:25:02;10.50;99.90
15259;DHT22;34462;51.368;12.364;2023-04-25T07:27:30;10.40;99.90
15259;DHT22;34462;51.368;12.364;2023-04-25T07:29:59;10.50;99.90
15259;DHT22;34462;51.368;12.364;2023-04-25T07:32:27;10.40;99.90
15259;DHT22;34462;51.368;12.364;2023-04-25T07:34:55;10.30;99.90
15259;DHT22;34462;51.368;12.364;2023-04-25T07:37:23;10.30;99.90
15259;DHT22;34462;51.368;12.364;2023-04-25T07:39:52;10.40;99.90
15259;DHT22;34462;51.368;12.364;2023-04-25T07:42:21;10.20;99.90
15259;DHT22;34462;51.368;12.364;2023-04-25T07:44:49;10.20;99.90
15259;DHT22;34462;51.368;12.364;2023-04-25T07:47:18;10.00;99.90
15259;DHT22;34462;51.368;12.364;2023-04-25T07:49:47;9.90;99.90
15259;DHT22;34462;51.368;12.364;2023-04-25T07:52:15;9.70;99.90
15259;DHT22;34462;51.368;12.364;2023-04-25T07:54:43;9.70;99.90
15259;DHT22;34462;51.368;12.364;2023-04-25T07:57:11;9.60;99.90
15259;DHT22;34462;51.368;12.364;2023-04-25T07:59:42;9.50;99.90
15259;DHT22;34462;51.368;12.364;2023-04-25T08:02:10;9.50;99.90
15259;DHT22;34462;51.368;12.364;2023-04-25T08:04:38;9.50;99.90
15259;DHT22;34462;51.368;12.364;2023-04-25T08:07:07;9.60;99.90
15259;DHT22;34462;51.368;12.364;2023-04-25T08:09:36;9.70;99.90
15259;DHT22;34462;51.368;12.364;2023-04-25T08:12:04;9.80;99.90
15259;DHT22;34462;51.368;12.364;2023-04-25T08:14:33;10.00;99.90
15259;DHT22;34462;51.368;12.364;2023-04-25T08:17:05;10.20;99.90
15259;DHT22;34462;51.368;12.364;2023-04-25T08:19:33;10.40;99.90
15259;DHT22;34462;51.368;12.364;2023-04-25T08:22:01;10.50;99.90
15259;DHT22;34462;51.368;12.364;2023-04-25T08:24:30;10.70;99.90
15259;DHT22;34462;51.368;12.364;2023-04-25T08:26:58;11.00;99.90
15259;DHT22;34462;51.368;12.364;2023-04-25T08:29:27;11.00;99.90
15259;DHT22;34462;51.368;12.364;2023-04-25T08:31:55;11.10;99.90
15259;DHT22;34462;51.368;12.364;2023-04-25T08:34:24;11.30;99.90
15259;DHT22;34462;51.368;12.364;2023-04-25T08:36:53;11.20;99.90
15259;DHT22;34462;51.368;12.364;2023-04-25T08:39:21;11.40;99.90
15259;DHT22;34462;51.368;12.364;2023-04-25T08:41:49;11.40;99.90
15259;DHT22;34462;51.368;12.364;2023-04-25T08:44:19;11.20;99.90
15259;DHT22;34462;51.368;12.364;2023-04-25T08:46:51;11.20;99.90
15259;DHT22;34462;51.368;12.364;2023-04-25T08:49:20;11.40;99.90
15259;DHT22;34462;51.368;12.364;2023-04-25T08:51:50;11.40;99.90
15259;DHT22;34462;51.368;12.364;2023-04-25T08:54:24;11.30;99.90
15259;DHT22;34462;51.368;12.364;2023-04-25T08:57:02;11.40;99.90
15259;DHT22;34462;51.368;12.364;2023-04-25T08:59:32;11.40;99.90
15259;DHT22;34462;51.368;12.364;2023-04-25T09:02:03;11.40;99.90
15259;DHT22;34462;51.368;12.364;2023-04-25T09:04:31;11.50;99.90
15259;DHT22;34462;51.368;12.364;2023-04-25T09:07:01;11.50;99.90
15259;DHT22;34462;51.368;12.364;2023-04-25T09:09:30;11.70;99.90
15259;DHT22;34462;51.368;12.364;2023-04-25T09:11:58;11.60;99.90
15259;DHT22;34462;51.368;12.364;2023-04-25T09:14:28;11.70;99.90
15259;DHT22;34462;51.368;12.364;2023-04-25T09:17:03;11.70;99.90
15259;DHT22;34462;51.368;12.364;2023-04-25T09:19:35;11.60;99.90
15259;DHT22;34462;51.368;12.364;2023-04-25T09:22:09;11.70;99.90
15259;DHT22;34462;51.368;12.364;2023-04-25T09:24:38;11.60;99.90
15259;DHT22;34462;51.368;12.364;2023-04-25T09:27:09;11.70;99.90
15259;DHT22;34462;51.368;12.364;2023-04-25T09:29:39;11.70;99.90
15259;DHT22;34462;51.368;12.364;2023-04-25T09:32:15;11.60;99.90
15259;DHT22;34462;51.368;12.364;2023-04-25T09:34:47;11.50;99.90
15259;DHT22;34462;51.368;12.364;2023-04-25T09:37:19;11.20;99.90
15259;DHT22;34462;51.368;12.364;2023-04-25T09:39:49;11.00;99.90
15259;DHT22;34462;51.368;12.364;2023-04-25T09:42:22;10.90;99.90
15259;DHT22;34462;51.368;12.364;2023-04-25T09:44:52;10.60;99.90
15259;DHT22;34462;51.368;12.364;2023-04-25T09:47:23;10.40;99.90
15259;DHT22;34462;51.368;12.364;2023-04-25T09:49:53;10.50;99.90
15259;DHT22;34462;51.368;12.364;2023-04-25T09:52:24;10.60;99.90
15259;DHT22;34462;51.368;12.364;2023-04-25T09:54:53;10.70;99.90
15259;DHT22;34462;51.368;12.364;2023-04-25T09:57:22;11.00;99.90
15259;DHT22;34462;51.368;12.364;2023-04-25T09:59:52;11.20;99.90
15259;DHT22;34462;51.368;12.364;2023-04-25T10:02:23;11.20;99.90
15259;DHT22;34462;51.368;12.364;2023-04-25T10:04:53;11.20;99.90
15259;DHT22;34462;51.368;12.364;2023-04-25T10:07:26;11.00;99.90
15259;DHT22;34462;51.368;12.364;2023-04-25T10:10:00;10.80;99.90
15259;DHT22;34462;51.368;12.364;2023-04-25T10:12:30;10.80;99.90
15259;DHT22;34462;51.368;12.364;2023-04-25T10:15:00;10.80;99.90
15259;DHT22;34462;51.368;12.364;2023-04-25T10:17:31;10.70;99.90
15259;DHT22;34462;51.368;12.364;2023-04-25T10:20:02;10.80;99.90
15259;DHT22;34462;51.368;12.364;2023-04-25T10:22:37;11.00;99.90
15259;DHT22;34462;51.368;12.364;2023-04-25T10:25:09;11.20;99.90
15259;DHT22;34462;51.368;12.364;2023-04-25T10:27:39;11.30;99.90
15259;DHT22;34462;51.368;12.364;2023-04-25T10:30:09;11.60;99.90
15259;DHT22;34462;51.368;12.364;2023-04-25T10:32:39;11.70;99.90
15259;DHT22;34462;51.368;12.364;2023-04-25T10:35:13;11.60;99.90
15259;DHT22;34462;51.368;12.364;2023-04-25T10:38:02;11.40;99.90
15259;DHT22;34462;51.368;12.364;2023-04-25T10:40:32;11.10;99.90
15259;DHT22;34462;51.368;12.364;2023-04-25T10:43:35;11.00;99.90
15259;DHT22;34462;51.368;12.364;2023-04-25T10:46:17;10.90;99.90
15259;DHT22;34462;51.368;12.364;2023-04-25T10:48:47;10.80;99.90
15259;DHT22;34462;51.368;12.364;2023-04-25T10:51:22;10.70;99.90
15259;DHT22;34462;51.368;12.364;2023-04-25T10:54:00;10.70;99.90
15259;DHT22;34462;51.368;12.364;2023-04-25T10:56:31;10.60;99.90
15259;DHT22;34462;51.368;12.364;2023-04-25T10:59:05;10.60;99.90
15259;DHT22;34462;51.368;12.364;2023-04-25T11:01:39;10.60;99.90
15259;DHT22;34462;51.368;12.364;2023-04-25T11:04:19;10.60;99.90
15259;DHT22;34462;51.368;12.364;2023-04-25T11:06:59;10.60;99.90
15259;DHT22;34462;51.368;12.364;2023-04-25T11:09:38;10.60;99.90
15259;DHT22;34462;51.368;12.364;2023-04-25T11:12:08;10.50;99.90
15259;DHT22;34462;51.368;12.364;2023-04-25T11:14:38;10.40;99.90
15259;DHT22;34462;51.368;12.364;2023-04-25T11:17:11;10.40;99.90
15259;DHT22;34462;51.368;12.364;2023-04-25T11:19:40;10.30;99.90
15259;DHT22;34462;51.368;12.364;2023-04-25T11:22:10;10.20;99.90
15259;DHT22;34462;51.368;12.364;2023-04-25T11:24:39;10.10;99.90
15259;DHT22;34462;51.368;12.364;2023-04-25T11:27:08;10.10;99.90
15259;DHT22;34462;51.368;12.364;2023-04-25T11:29:36;10.00;99.90
15259;DHT22;34462;51.368;12.364;2023-04-25T11:32:04;10.10;99.90
15259;DHT22;34462;51.368;12.364;2023-04-25T11:34:33;10.20;99.90
15259;DHT22;34462;51.368;12.364;2023-04-25T11:37:02;10.20;99.90
15259;DHT22;34462;51.368;12.364;2023-04-25T11:39:31;10.40;99.90
15259;DHT22;34462;51.368;12.364;2023-04-25T11:42:01;10.50;99.90
15259;DHT22;34462;51.368;12.364;2023-04-25T11:44:39;10.70;99.90
15259;DHT22;34462;51.368;12.364;2023-04-25T11:47:08;10.90;99.90
15259;DHT22;34462;51.368;12.364;2023-04-25T11:49:36;10.90;99.90
15259;DHT22;34462;51.368;12.364;2023-04-25T11:52:06;11.00;99.90
15259;DHT22;34462;51.368;12.364;2023-04-25T11:54:36;11.10;99.90
15259;DHT22;34462;51.368;12.364;2023-04-25T11:57:05;11.20;99.90
15259;DHT22;34462;51.368;12.364;2023-04-25T11:59:34;11.30;99.90
15259;DHT22;34462;51.368;12.364;2023-04-25T12:02:02;11.40;99.90
15259;DHT22;34462;51.368;12.364;2023-04-25T12:04:30;11.30;99.90
15259;DHT22;34462;51.368;12.364;2023-04-25T12:07:00;11.30;99.90
15259;DHT22;34462;51.368;12.364;2023-04-25T12:09:30;11.30;99.90
15259;DHT22;34462;51.368;12.364;2023-04-25T12:12:00;11.40;99.90
15259;DHT22;34462;51.368;12.364;2023-04-25T12:14:33;11.70;99.90
15259;DHT22;34462;51.368;12.364;2023-04-25T12:17:03;11.70;99.90
15259;DHT22;34462;51.368;12.364;2023-04-25T12:19:35;12.00;99.90
15259;DHT22;34462;51.368;12.364;2023-04-25T12:22:19;12.20;99.90
15259;DHT22;34462;51.368;12.364;2023-04-25T12:24:49;12.40;99.90
15259;DHT22;34462;51.368;12.364;2023-04-25T12:27:20;12.30;99.90
15259;DHT22;34462;51.368;12.364;2023-04-25T12:29:54;12.10;99.90
15259;DHT22;34462;51.368;12.364;2023-04-25T12:32:23;12.00;99.90
15259;DHT22;34462;51.368;12.364;2023-04-25T12:34:51;11.80;99.90
15259;DHT22;34462;51.368;12.364;2023-04-25T12:37:20;11.60;99.90
15259;DHT22;34462;51.368;12.364;2023-04-25T12:39:48;11.30;99.90
15259;DHT22;34462;51.368;12.364;2023-04-25T12:42:16;11.10;99.90
15259;DHT22;34462;51.368;12.364;2023-04-25T12:44:44;11.10;99.90
15259;DHT22;34462;51.368;12.364;2023-04-25T12:47:14;11.30;99.90
15259;DHT22;34462;51.368;12.364;2023-04-25T12:49:42;11.40;99.90
15259;DHT22;34462;51.368;12.364;2023-04-25T12:52:10;11.40;99.90
15259;DHT22;34462;51.368;12.364;2023-04-25T12:54:38;11.60;99.90
15259;DHT22;34462;51.368;12.364;2023-04-25T12:57:06;11.70;99.90
15259;DHT22;34462;51.368;12.364;2023-04-25T12:59:34;11.90;99.90
15259;DHT22;34462;51.368;12.364;2023-04-25T13:02:02;11.90;99.90
15259;DHT22;34462;51.368;12.364;2023-04-25T13:04:32;11.80;99.90
15259;DHT22;34462;51.368;12.364;2023-04-25T13:07:00;11.50;99.90
15259;DHT22;34462;51.368;12.364;2023-04-25T13:09:28;11.30;99.90
15259;DHT22;34462;51.368;12.364;2023-04-25T13:11:57;11.10;99.90
15259;DHT22;34462;51.368;12.364;2023-04-25T13:14:25;11.00;99.90
15259;DHT22;34462;51.368;12.364;2023-04-25T13:16:53;10.90;99.90
15259;DHT22;34462;51.368;12.364;2023-04-25T13:19:21;10.90;99.90
15259;DHT22;34462;51.368;12.364;2023-04-25T13:21:51;10.80;99.90
15259;DHT22;34462;51.368;12.364;2023-04-25T13:24:19;10.80;99.90
15259;DHT22;34462;51.368;12.364;2023-04-25T13:26:47;10.70;99.90
15259;DHT22;34462;51.368;12.364;2023-04-25T13:29:15;10.80;99.90
15259;DHT22;34462;51.368;12.364;2023-04-25T13:31:43;11.00;99.90
15259;DHT22;34462;51.368;12.364;2023-04-25T13:34:11;11.20;99.90
15259;DHT22;34462;51.368;12.364;2023-04-25T13:36:39;11.50;99.90
15259;DHT22;34462;51.368;12.364;2023-04-25T13:39:09;11.80;99.90
15259;DHT22;34462;51.368;12.364;2023-04-25T13:41:38;12.20;99.90
15259;DHT22;34462;51.368;12.364;2023-04-25T13:44:07;12.40;99.90
15259;DHT22;34462;51.368;12.364;2023-04-25T13:46:35;12.50;99.90
15259;DHT22;34462;51.368;12.364;2023-04-25T13:49:12;12.50;99.90
15259;DHT22;34462;51.368;12.364;2023-04-25T13:51:41;12.50;99.90
15259;DHT22;34462;51.368;12.364;2023-04-25T13:54:11;12.30;99.90
15259;DHT22;34462;51.368;12.364;2023-04-25T13:56:39;12.10;99.90
15259;DHT22;34462;51.368;12.364;2023-04-25T13:59:08;12.10;99.90
15259;DHT22;34462;51.368;12.364;2023-04-25T14:01:37;12.10;99.90
15259;DHT22;34462;51.368;12.364;2023-04-25T14:04:05;12.20;99.90
15259;DHT22;34462;51.368;12.364;2023-04-25T14:06:34;12.30;99.90
15259;DHT22;34462;51.368;12.364;2023-04-25T14:09:03;12.30;99.90
15259;DHT22;34462;51.368;12.364;2023-04-25T14:11:34;12.30;99.90
15259;DHT22;34462;51.368;12.364;2023-04-25T14:14:02;12.20;99.90
15259;DHT22;34462;51.368;12.364;2023-04-25T14:16:30;12.10;99.90
15259;DHT22;34462;51.368;12.364;2023-04-25T14:18:59;12.10;99.90
15259;DHT22;34462;51.368;12.364;2023-04-25T14:21:27;12.00;99.90
15259;DHT22;34462;51.368;12.364;2023-04-25T14:23:58;12.10;99.90
15259;DHT22;34462;51.368;12.364;2023-04-25T14:26:26;12.10;99.90
15259;DHT22;34462;51.368;12.364;2023-04-25T14:28:55;12.10;99.90
15259;DHT22;34462;51.368;12.364;2023-04-25T14:31:23;11.90;99.90
15259;DHT22;34462;51.368;12.364;2023-04-25T14:33:51;11.90;99.90
15259;DHT22;34462;51.368;12.364;2023-04-25T14:36:23;11.90;99.90
15259;DHT22;34462;51.368;12.364;2023-04-25T14:38:52;12.10;99.90
15259;DHT22;34462;51.368;12.364;2023-04-25T14:41:21;12.20;99.90
15259;DHT22;34462;51.368;12.364;2023-04-25T14:43:49;12.40;99.90
15259;DHT22;34462;51.368;12.364;2023-04-25T14:46:20;12.40;99.90
15259;DHT22;34462;51.368;12.364;2023-04-25T14:48:50;12.30;99.90
15259;DHT22;34462;51.368;12.364;2023-04-25T14:51:18;12.30;99.90
15259;DHT22;34462;51.368;12.364;2023-04-25T14:53:47;12.20;99.90
15259;DHT22;34462;51.368;12.364;2023-04-25T14:56:15;12.30;99.90
15259;DHT22;34462;51.368;12.364;2023-04-25T14:58:43;12.20;99.90
15259;DHT22;34462;51.368;12.364;2023-04-25T15:01:12;12.30;99.90
15259;DHT22;34462;51.368;12.364;2023-04-25T15:03:42;12.20;99.90
15259;DHT22;34462;51.368;12.364;2023-04-25T15:06:10;12.10;99.90
15259;DHT22;34462;51.368;12.364;2023-04-25T15:08:38;11.80;99.90
15259;DHT22;34462;51.368;12.364;2023-04-25T15:11:07;11.80;99.90
15259;DHT22;34462;51.368;12.364;2023-04-25T15:13:35;11.60;99.90
15259;DHT22;34462;51.368;12.364;2023-04-25T15:16:03;11.60;99.90
15259;DHT22;34462;51.368;12.364;2023-04-25T15:18:32;11.60;99.90
15259;DHT22;34462;51.368;12.364;2023-04-25T15:21:02;11.50;99.90
15259;DHT22;34462;51.368;12.364;2023-04-25T15:23:31;11.60;99.90
15259;DHT22;34462;51.368;12.364;2023-04-25T15:25:59;11.60;99.90
15259;DHT22;34462;51.368;12.364;2023-04-25T15:28:27;11.60;99.90
15259;DHT22;34462;51.368;12.364;2023-04-25T15:30:55;11.50;99.90
15259;DHT22;34462;51.368;12.364;2023-04-25T15:33:24;11.40;99.90
15259;DHT22;34462;51.368;12.364;2023-04-25T15:35:52;11.50;99.90